createdAt,value
2019-05-06T00:04:21.517Z,5.90
2019-05-06T00:09:24.860Z,5.80
2019-05-06T00:14:28.478Z,5.80
2019-05-06T00:29:51.214Z,5.50
2019-05-06T00:34:54.865Z,5.40
2019-05-06T00:40:24.383Z,5.40
2019-05-06T00:55:35.622Z,5.30
2019-05-06T01:05:44.403Z,5.30
2019-05-06T01:15:51.912Z,5.30
2019-05-06T01:31:18.637Z,5.50
2019-05-06T01:36:24.795Z,5.70
2019-05-06T01:41:46.114Z,5.80
2019-05-06T01:46:50.099Z,5.90
2019-05-06T01:51:54.724Z,6.00
2019-05-06T02:02:04.239Z,6.00
2019-05-06T02:07:08.016Z,6.10
2019-05-06T02:12:11.335Z,6.20
2019-05-06T02:22:28.440Z,6.20
2019-05-06T02:27:34.122Z,6.30
2019-05-06T02:33:04.343Z,6.30
2019-05-06T02:38:25.810Z,6.30
2019-05-06T02:43:28.967Z,6.30
2019-05-06T02:53:58.525Z,6.20
2019-05-06T02:59:04.016Z,6.20
2019-05-06T03:09:13.422Z,6.10
2019-05-06T03:14:16.347Z,6.00
2019-05-06T03:19:20.300Z,6.10
2019-05-06T03:24:44.504Z,5.90
2019-05-06T03:29:48.806Z,5.90
2019-05-06T03:35:15.837Z,5.90
2019-05-06T03:39:58.274Z,5.90
2019-05-06T03:45:08.727Z,5.90
2019-05-06T03:50:13.452Z,5.90
2019-05-06T03:55:17.205Z,5.90
2019-05-06T04:00:23.479Z,5.90
2019-05-06T04:05:25.865Z,5.90
2019-05-06T04:10:30.114Z,5.90
2019-05-06T04:15:56.131Z,5.90
2019-05-06T04:21:13.625Z,6.00
2019-05-06T04:26:24.043Z,6.20
2019-05-06T04:31:28.115Z,6.40
2019-05-06T04:36:33.638Z,6.80
2019-05-06T04:41:37.249Z,6.80
2019-05-06T04:46:43.996Z,7.20
2019-05-06T04:51:46.338Z,7.50
2019-05-06T04:56:53.540Z,8.00
2019-05-06T05:01:57.839Z,8.20
2019-05-06T05:07:03.478Z,8.40
2019-05-06T05:12:13.798Z,8.60
2019-05-06T05:17:33.140Z,8.70
2019-05-06T05:22:37.634Z,8.70
2019-05-06T05:27:42.170Z,8.90
2019-05-06T05:32:45.648Z,9.10
2019-05-06T05:37:49.305Z,5.80
2019-05-06T05:43:11.714Z,9.30
2019-05-06T05:48:35.809Z,8.20
2019-05-06T05:53:42.473Z,9.60
2019-05-06T05:58:45.574Z,9.70
2019-05-06T06:03:48.962Z,10.00
2019-05-06T06:08:52.591Z,10.30
2019-05-06T06:13:57.996Z,8.70
2019-05-06T06:19:23.551Z,11.00
2019-05-06T06:24:32.036Z,11.70
2019-05-06T06:29:35.804Z,12.20
2019-05-06T06:35:11.116Z,12.30
2019-05-06T06:40:13.104Z,12.50
2019-05-06T06:45:16.661Z,12.90
2019-05-06T06:50:21.947Z,12.90
2019-05-06T06:55:25.285Z,12.80
2019-05-06T07:00:35.510Z,13.10
2019-05-06T07:05:45.019Z,13.30
2019-05-06T07:10:48.490Z,13.40
2019-05-06T07:15:53.167Z,11.80
2019-05-06T07:21:25.034Z,13.50
2019-05-06T07:26:32.586Z,13.60
2019-05-06T07:31:36.248Z,13.80
2019-05-06T07:36:39.585Z,13.70
2019-05-06T07:41:48.352Z,13.90
2019-05-06T07:47:13.388Z,9.80
2019-05-06T07:52:17.638Z,13.50
2019-05-06T07:57:22.041Z,12.40
2019-05-06T08:02:26.646Z,14.10
2019-05-06T08:07:30.088Z,14.10
2019-05-06T08:12:33.665Z,13.80
2019-05-06T08:17:42.339Z,9.40
2019-05-06T08:23:02.196Z,13.70
2019-05-06T08:28:05.939Z,14.00
2019-05-06T08:33:09.310Z,14.00
2019-05-06T08:38:13.720Z,12.30
2019-05-06T08:43:17.338Z,13.40
2019-05-06T08:48:22.152Z,13.10
2019-05-06T08:53:32.817Z,13.40
2019-05-06T08:58:48.272Z,13.60
2019-05-06T09:04:06.377Z,13.60
2019-05-06T09:08:57.173Z,12.70
2019-05-06T09:14:03.148Z,12.70
2019-05-06T09:19:06.791Z,12.70
2019-05-06T09:29:22.974Z,12.80
2019-05-06T09:34:32.719Z,12.90
2019-05-06T10:00:20.320Z,14.10
2019-05-06T10:05:23.791Z,14.10
2019-05-06T10:10:27.456Z,14.10
2019-05-06T10:20:43.223Z,14.60
2019-05-06T10:25:48.429Z,14.70
2019-05-06T10:30:51.780Z,15.10
2019-05-06T10:35:58.355Z,15.10
2019-05-06T10:51:23.141Z,14.70
2019-05-06T10:56:53.986Z,14.60
2019-05-06T11:01:57.708Z,14.70
2019-05-06T11:07:03.844Z,14.40
2019-05-06T11:12:07.039Z,13.90
2019-05-06T11:17:12.537Z,13.90
2019-05-06T11:22:15.884Z,14.50
2019-05-06T11:27:28.898Z,14.80
2019-05-06T11:32:33.193Z,14.70
2019-05-06T11:37:47.106Z,13.90
2019-05-06T11:42:45.106Z,14.00
2019-05-06T11:47:48.444Z,13.50
2019-05-06T11:52:53.092Z,13.50
2019-05-06T11:57:57.428Z,13.80
2019-05-06T12:03:02.366Z,13.90
2019-05-06T12:13:12.240Z,14.30
2019-05-06T12:18:15.690Z,14.30
2019-05-06T12:23:22.260Z,14.40
2019-05-06T12:28:25.965Z,14.40
2019-05-06T12:44:06.523Z,14.80
2019-05-06T12:49:12.760Z,14.50
2019-05-06T13:04:46.331Z,14.40
2019-05-06T13:09:33.148Z,14.60
2019-05-06T13:19:42.918Z,15.30
2019-05-06T13:29:51.068Z,15.30
2019-05-06T13:39:58.348Z,14.90
2019-05-06T13:45:02.915Z,15.10
2019-05-06T13:50:07.563Z,15.50
2019-05-06T13:55:12.916Z,15.20
2019-05-06T14:00:16.728Z,15.50
2019-05-06T14:05:20.644Z,15.60
2019-05-06T14:10:24.758Z,15.60
2019-05-06T14:15:28.110Z,15.90
2019-05-06T14:20:33.514Z,16.10
2019-05-06T14:26:05.347Z,15.90
2019-05-06T14:31:14.923Z,16.50
2019-05-06T14:36:18.354Z,23.90
2019-05-06T14:41:26.949Z,26.70
2019-05-06T14:51:54.338Z,23.90
2019-05-06T15:02:06.757Z,24.10
2019-05-06T15:07:12.527Z,21.70
2019-05-06T15:12:15.633Z,21.50
2019-05-06T15:17:19.059Z,22.50
2019-05-06T15:27:26.371Z,24.70
2019-05-06T15:37:45.800Z,23.60
2019-05-06T15:42:49.980Z,21.30
2019-05-06T15:47:54.537Z,18.60
2019-05-06T16:03:07.399Z,15.90
2019-05-06T16:13:14.576Z,24.20
2019-05-06T16:28:36.883Z,17.10
2019-05-06T16:33:42.973Z,16.10
2019-05-06T16:48:53.185Z,15.30
2019-05-06T16:59:03.313Z,14.30
2019-05-06T17:14:36.592Z,13.50
2019-05-06T17:45:36.191Z,12.50
2019-05-06T17:50:39.506Z,12.20
2019-05-06T17:55:43.907Z,11.90
2019-05-06T18:10:56.074Z,11.00
2019-05-06T18:15:59.431Z,10.90
2019-05-06T18:21:03.635Z,10.70
2019-05-06T18:26:06.962Z,10.60
2019-05-06T18:31:12.567Z,10.40
2019-05-06T18:36:17.082Z,10.20
2019-05-06T18:46:23.892Z,10.00
2019-05-06T18:51:27.247Z,9.90
2019-05-06T19:01:35.905Z,9.70
2019-05-06T19:12:03.613Z,9.50
2019-05-06T19:27:16.024Z,9.20
2019-05-06T19:42:27.012Z,8.90
2019-05-06T19:47:31.969Z,8.80
2019-05-06T19:52:35.573Z,8.80
2019-05-06T20:23:12.752Z,8.40
2019-05-06T20:28:17.329Z,8.30
2019-05-06T20:33:22.007Z,8.20
2019-05-06T20:38:25.541Z,8.10
2019-05-06T20:48:32.687Z,8.00
2019-05-06T20:53:36.009Z,8.00
2019-05-06T21:18:58.546Z,7.50
2019-05-06T21:29:05.506Z,7.30
2019-05-06T21:44:17.357Z,7.20
2019-05-06T21:49:22.824Z,7.20
2019-05-06T21:54:27.272Z,7.20
2019-05-06T21:59:30.797Z,7.10
2019-05-06T22:04:35.005Z,7.10
2019-05-06T22:14:42.287Z,7.10
2019-05-06T22:29:56.355Z,6.90
2019-05-06T22:40:06.105Z,6.70
2019-05-06T22:45:12.540Z,6.60
2019-05-06T22:50:16.520Z,6.50
2019-05-06T23:00:26.658Z,6.30
2019-05-06T23:05:29.968Z,6.20
2019-05-06T23:10:33.870Z,6.10
2019-05-06T23:15:37.260Z,6.10
2019-05-06T23:20:42.913Z,6.00
2019-05-06T23:26:06.053Z,5.90
2019-05-06T23:31:09.650Z,5.80
2019-05-06T23:36:13.090Z,5.80
2019-05-06T23:48:18.613Z,5.60
2019-05-06T23:54:16.964Z,5.50
